Cecil, Ohio
Current Conditions -  °F | °C
As of 10:53 PM on Monday 20 Oct 2014 (Local Time) from KDFI Reporting Station
Overcast Overcast  
Wind Chill: 54°   Ceiling: 7500
Heat Index: 54°   Visibility: 10mi
Dew Point: 48°   Wind: 8mph
Humidity: 80%   Direction: 320°NW
Pressure: 29.89"   Gusts: NA
Location:  41.22°N, 84.6°W
Report Text: KDFI 210253Z AUTO 32007KT 10SM OVC075 12/09 A2989 RMK AO2 SLP123 T01220089 51007
Loading
Personal Weather Stations






























Interactive Weather Map
Tropical Storm Tracking
New forecast layout! Learn more

10-Day Weather Forecast

Advertisements
Track Severe Weather on mobile